createdAt,value
2022-09-22T00:01:12.299Z,5.50
2022-09-22T00:02:45.728Z,5.50
2022-09-22T00:04:19.368Z,5.50
2022-09-22T00:06:02.421Z,5.50
2022-09-22T00:07:37.689Z,5.50
2022-09-22T00:09:13.940Z,5.50
2022-09-22T00:10:46.245Z,5.40
2022-09-22T00:12:19.532Z,5.40
2022-09-22T00:13:54.978Z,5.40
2022-09-22T00:15:28.425Z,5.30
2022-09-22T00:17:03.453Z,5.30
2022-09-22T00:18:36.119Z,5.30
2022-09-22T00:20:10.586Z,5.30
2022-09-22T00:21:44.412Z,5.30
2022-09-22T00:23:18.579Z,5.20
2022-09-22T00:24:52.770Z,5.20
2022-09-22T00:26:26.020Z,5.20
2022-09-22T00:27:58.236Z,5.30
2022-09-22T00:29:32.012Z,5.20
2022-09-22T00:31:07.286Z,5.20
2022-09-22T00:32:40.987Z,5.10
2022-09-22T00:34:18.671Z,5.20
2022-09-22T00:35:59.172Z,5.10
2022-09-22T00:37:32.600Z,5.10
2022-09-22T00:39:07.527Z,5.10
2022-09-22T00:40:41.034Z,5.10
2022-09-22T00:42:14.377Z,5.10
2022-09-22T00:43:50.312Z,5.00
2022-09-22T00:45:24.429Z,5.00
2022-09-22T00:47:02.809Z,5.00
2022-09-22T00:48:44.304Z,4.90
2022-09-22T00:50:22.712Z,4.90
2022-09-22T00:51:55.068Z,4.80
2022-09-22T00:53:31.748Z,4.90
2022-09-22T00:55:14.394Z,4.90
2022-09-22T00:56:56.589Z,4.90
2022-09-22T00:58:34.965Z,5.00
2022-09-22T01:00:12.561Z,4.80
2022-09-22T01:01:45.096Z,4.80
2022-09-22T01:03:26.249Z,4.80
2022-09-22T01:05:03.517Z,4.80
2022-09-22T01:06:40.768Z,4.80
2022-09-22T01:08:15.979Z,4.80
2022-09-22T01:09:48.428Z,4.80
2022-09-22T01:11:25.146Z,4.80
2022-09-22T01:13:16.217Z,4.70
2022-09-22T01:15:15.730Z,4.70
2022-09-22T01:17:03.014Z,4.70
2022-09-22T01:18:53.760Z,4.70
2022-09-22T01:21:23.010Z,4.70
2022-09-22T01:23:56.012Z,4.60
2022-09-22T01:26:16.452Z,4.60
2022-09-22T01:28:21.159Z,4.60
2022-09-22T01:30:26.613Z,4.60
2022-09-22T01:32:16.740Z,4.60
2022-09-22T01:33:59.930Z,4.50
2022-09-22T01:35:50.222Z,4.50
2022-09-22T01:37:37.285Z,4.50
2022-09-22T01:39:20.136Z,4.50
2022-09-22T01:41:01.949Z,4.50
2022-09-22T01:42:44.190Z,4.40
2022-09-22T01:44:26.967Z,4.40
2022-09-22T01:46:07.950Z,4.40
2022-09-22T01:47:48.252Z,4.40
2022-09-22T01:49:25.027Z,4.30
2022-09-22T01:51:05.861Z,4.30
2022-09-22T01:52:42.252Z,4.30
2022-09-22T01:54:21.514Z,4.30
2022-09-22T01:56:02.420Z,4.20
2022-09-22T01:57:45.433Z,4.30
2022-09-22T01:59:25.871Z,4.20
2022-09-22T02:01:12.173Z,4.20
2022-09-22T02:02:58.407Z,4.20
2022-09-22T02:04:37.017Z,4.20
2022-09-22T02:06:19.507Z,4.20
2022-09-22T02:07:56.331Z,4.20
2022-09-22T02:09:34.793Z,4.10
2022-09-22T02:11:13.870Z,4.20
2022-09-22T02:12:49.187Z,4.10
2022-09-22T02:14:22.643Z,4.10
2022-09-22T02:16:01.509Z,4.10
2022-09-22T02:17:37.107Z,4.10
2022-09-22T02:19:17.038Z,4.10
2022-09-22T02:20:51.506Z,4.00
2022-09-22T02:22:25.163Z,4.00
2022-09-22T02:24:01.623Z,4.00
2022-09-22T02:25:34.156Z,4.00
2022-09-22T02:27:12.235Z,4.10
2022-09-22T02:28:46.332Z,4.10
2022-09-22T02:30:20.459Z,4.00
2022-09-22T02:31:56.111Z,4.00
2022-09-22T02:33:38.310Z,3.90
2022-09-22T02:35:12.721Z,3.90
2022-09-22T02:36:58.307Z,4.00
2022-09-22T02:38:41.365Z,3.90
2022-09-22T02:40:24.549Z,3.90
2022-09-22T02:42:24.997Z,3.90
2022-09-22T02:44:06.460Z,3.80
2022-09-22T02:45:49.859Z,3.90
2022-09-22T02:47:33.361Z,3.80
2022-09-22T02:49:14.277Z,3.80
2022-09-22T02:50:47.489Z,3.80
2022-09-22T02:52:24.037Z,3.80
2022-09-22T02:53:58.031Z,3.80
2022-09-22T02:55:31.659Z,3.80
2022-09-22T02:57:05.023Z,3.70
2022-09-22T02:58:38.275Z,3.70
2022-09-22T03:00:31.216Z,3.70
2022-09-22T03:02:04.632Z,3.70
2022-09-22T03:03:38.408Z,3.70
2022-09-22T03:05:13.628Z,3.80
2022-09-22T03:06:45.980Z,3.70
2022-09-22T03:08:19.657Z,3.70
2022-09-22T03:09:52.887Z,3.70
2022-09-22T03:11:26.263Z,3.60
2022-09-22T03:14:52.935Z,3.60
2022-09-22T03:16:26.194Z,3.60
2022-09-22T03:17:59.755Z,3.60
2022-09-22T03:19:33.215Z,3.60
2022-09-22T03:21:08.372Z,3.60
2022-09-22T03:22:42.737Z,3.60
2022-09-22T03:24:15.981Z,3.60
2022-09-22T03:25:49.239Z,3.60
2022-09-22T03:27:22.553Z,3.70
2022-09-22T03:28:56.014Z,3.50
2022-09-22T03:30:29.735Z,3.40
2022-09-22T03:32:03.629Z,3.50
2022-09-22T03:33:37.087Z,3.50
2022-09-22T03:35:10.905Z,3.50
2022-09-22T03:36:46.182Z,3.40
2022-09-22T03:38:19.622Z,3.40
2022-09-22T03:39:53.166Z,3.50
2022-09-22T03:41:26.543Z,3.50
2022-09-22T03:43:00.226Z,3.50
2022-09-22T03:44:33.437Z,3.50
2022-09-22T03:46:06.193Z,3.50
2022-09-22T03:47:39.639Z,3.50
2022-09-22T03:49:12.903Z,3.40
2022-09-22T03:50:46.220Z,3.40
2022-09-22T03:52:20.919Z,3.40
2022-09-22T03:53:54.560Z,3.40
2022-09-22T03:55:28.489Z,3.40
2022-09-22T03:57:01.947Z,3.40
2022-09-22T03:58:34.948Z,3.40
2022-09-22T04:00:10.628Z,3.40
2022-09-22T04:01:47.416Z,3.30
2022-09-22T04:03:20.736Z,3.40
2022-09-22T04:04:54.352Z,3.30
2022-09-22T04:06:27.847Z,3.30
2022-09-22T04:08:02.908Z,3.40
2022-09-22T04:09:36.473Z,3.30
2022-09-22T04:11:09.927Z,3.30
2022-09-22T04:12:43.374Z,3.30
2022-09-22T04:14:19.729Z,3.30
2022-09-22T04:15:52.919Z,3.20
2022-09-22T04:17:26.157Z,3.10
2022-09-22T04:18:58.618Z,3.20
2022-09-22T04:20:31.918Z,3.20
2022-09-22T04:22:05.912Z,3.20
2022-09-22T04:23:40.536Z,3.20
2022-09-22T04:25:13.830Z,3.20
2022-09-22T04:27:02.146Z,3.20
2022-09-22T04:28:40.724Z,3.20
2022-09-22T04:30:14.967Z,3.20
2022-09-22T04:31:48.283Z,3.20
2022-09-22T04:33:21.851Z,3.10
2022-09-22T04:34:55.055Z,3.10
2022-09-22T04:36:28.359Z,3.10
2022-09-22T04:38:01.052Z,3.10
2022-09-22T04:39:36.371Z,3.10
2022-09-22T04:41:09.695Z,3.10
2022-09-22T04:42:46.505Z,3.10
2022-09-22T04:44:19.802Z,3.10
2022-09-22T04:45:53.428Z,3.10
2022-09-22T04:47:26.630Z,3.20
2022-09-22T04:49:00.945Z,3.10
2022-09-22T04:50:34.268Z,3.10
2022-09-22T04:52:12.160Z,3.10
2022-09-22T04:53:45.384Z,3.10
2022-09-22T04:55:23.084Z,3.10
2022-09-22T04:56:56.339Z,3.10
2022-09-22T04:58:29.591Z,3.10
2022-09-22T05:00:03.924Z,3.10
2022-09-22T05:01:37.536Z,3.10
2022-09-22T05:03:12.828Z,3.10
2022-09-22T05:04:46.062Z,3.10
2022-09-22T05:06:19.382Z,3.00
2022-09-22T05:07:55.076Z,3.00
2022-09-22T05:09:29.134Z,3.00
2022-09-22T05:11:06.559Z,3.00
2022-09-22T05:12:41.267Z,3.00
2022-09-22T05:14:15.231Z,3.00
2022-09-22T05:15:48.493Z,3.00
2022-09-22T05:17:21.648Z,3.00
2022-09-22T05:18:55.766Z,3.00
2022-09-22T05:20:29.075Z,2.90
2022-09-22T05:22:02.635Z,2.90
2022-09-22T05:23:36.790Z,2.90
2022-09-22T05:25:13.088Z,2.90
2022-09-22T05:26:48.135Z,2.90
2022-09-22T05:28:22.834Z,2.90
2022-09-22T05:29:56.439Z,3.00
2022-09-22T05:31:30.085Z,2.90
2022-09-22T05:33:03.287Z,2.90
2022-09-22T05:34:36.571Z,2.90
2022-09-22T05:36:09.907Z,2.90
2022-09-22T05:37:45.626Z,2.90
2022-09-22T05:39:18.952Z,2.90
2022-09-22T05:40:52.275Z,2.90
2022-09-22T05:42:26.862Z,2.90
2022-09-22T05:44:00.066Z,2.90
2022-09-22T05:45:33.417Z,2.90
2022-09-22T05:47:06.833Z,2.90
2022-09-22T05:48:40.147Z,2.90
2022-09-22T05:50:16.334Z,2.90
2022-09-22T05:51:52.103Z,2.90
2022-09-22T05:53:25.271Z,2.90
2022-09-22T05:54:58.947Z,2.90
2022-09-22T05:56:32.795Z,2.90
2022-09-22T05:58:09.163Z,2.90
2022-09-22T05:59:42.487Z,2.90
2022-09-22T06:01:16.241Z,2.90
2022-09-22T06:02:49.802Z,2.90
2022-09-22T06:04:22.055Z,2.90
2022-09-22T06:05:55.710Z,2.90
2022-09-22T06:07:29.043Z,2.90
2022-09-22T06:09:02.419Z,2.90
2022-09-22T06:10:38.657Z,2.90
2022-09-22T06:12:11.890Z,2.90
2022-09-22T06:13:50.544Z,2.90
2022-09-22T06:15:23.622Z,2.90
2022-09-22T06:16:57.369Z,2.90
2022-09-22T06:18:31.371Z,2.90
2022-09-22T06:20:05.489Z,2.90
2022-09-22T06:21:39.640Z,2.90
2022-09-22T06:23:15.274Z,2.90
2022-09-22T06:24:48.727Z,3.00
2022-09-22T06:26:21.961Z,3.00
2022-09-22T06:28:07.275Z,3.00
2022-09-22T06:29:42.260Z,3.00
2022-09-22T06:31:15.842Z,3.00
2022-09-22T06:32:55.419Z,3.00
2022-09-22T06:34:28.731Z,3.00
2022-09-22T06:36:02.513Z,3.00
2022-09-22T06:37:39.005Z,3.10
2022-09-22T06:39:14.196Z,3.10
2022-09-22T06:40:47.995Z,3.10
2022-09-22T06:42:21.243Z,3.10
2022-09-22T06:43:56.100Z,3.10
2022-09-22T06:45:33.715Z,3.10
2022-09-22T06:47:08.477Z,3.10
2022-09-22T06:48:41.655Z,3.20
2022-09-22T06:50:17.580Z,3.20
2022-09-22T06:51:52.390Z,3.20
2022-09-22T06:53:27.538Z,3.30
2022-09-22T06:55:01.235Z,3.30
2022-09-22T06:56:42.548Z,3.30
2022-09-22T06:58:16.671Z,3.30
2022-09-22T06:59:50.495Z,3.40
2022-09-22T07:01:28.157Z,3.40
2022-09-22T07:03:08.709Z,3.50
2022-09-22T07:04:42.217Z,3.50
2022-09-22T07:06:20.159Z,3.50
2022-09-22T07:07:54.037Z,3.50
2022-09-22T07:09:27.423Z,3.60
2022-09-22T07:11:03.716Z,3.70
2022-09-22T07:12:36.950Z,3.70
2022-09-22T07:14:11.452Z,3.70
2022-09-22T07:15:44.323Z,3.80
2022-09-22T07:17:20.212Z,3.80
2022-09-22T07:18:57.457Z,3.90
2022-09-22T07:20:35.618Z,3.90
2022-09-22T07:22:09.099Z,3.90
2022-09-22T07:23:44.154Z,4.00
2022-09-22T07:25:17.589Z,4.10
2022-09-22T07:26:51.100Z,4.10
2022-09-22T07:28:25.823Z,4.20
2022-09-22T07:29:59.200Z,4.20
2022-09-22T07:31:34.650Z,4.30
2022-09-22T07:33:09.564Z,4.40
2022-09-22T07:34:43.700Z,4.40
2022-09-22T07:36:19.886Z,4.40
2022-09-22T07:37:56.708Z,4.50
2022-09-22T07:39:30.090Z,4.60
2022-09-22T07:41:05.139Z,4.60
2022-09-22T07:42:38.851Z,4.70
2022-09-22T07:44:31.690Z,4.80
2022-09-22T07:46:06.224Z,4.80
2022-09-22T07:47:56.899Z,5.00
2022-09-22T07:49:32.070Z,5.00
2022-09-22T07:51:11.756Z,5.10
2022-09-22T07:52:52.924Z,5.20
2022-09-22T07:54:28.243Z,5.30
2022-09-22T07:56:07.212Z,5.40
2022-09-22T07:57:40.440Z,5.50
2022-09-22T07:59:16.750Z,5.60
2022-09-22T08:00:50.716Z,5.60
2022-09-22T08:02:28.644Z,5.70
2022-09-22T08:04:04.440Z,5.80
2022-09-22T08:05:40.700Z,5.90
2022-09-22T08:07:15.192Z,6.00
2022-09-22T08:08:53.556Z,6.10
2022-09-22T08:10:28.351Z,6.20
2022-09-22T08:12:02.202Z,6.40
2022-09-22T08:13:37.120Z,6.50
2022-09-22T08:15:13.052Z,6.60
2022-09-22T08:16:47.119Z,6.70
2022-09-22T08:18:20.355Z,6.80
2022-09-22T08:19:53.531Z,6.90
2022-09-22T08:21:35.340Z,7.10
2022-09-22T08:23:10.938Z,7.20
2022-09-22T08:24:45.530Z,7.30
2022-09-22T08:26:19.652Z,7.40
2022-09-22T08:27:53.369Z,7.60
2022-09-22T08:29:27.834Z,7.70
2022-09-22T08:31:02.867Z,7.90
2022-09-22T08:32:36.978Z,8.00
2022-09-22T08:34:11.364Z,8.10
2022-09-22T08:35:54.154Z,8.30
2022-09-22T08:37:28.720Z,8.40
2022-09-22T08:39:03.908Z,8.60
2022-09-22T08:40:38.994Z,8.70
2022-09-22T08:42:20.878Z,8.90
2022-09-22T08:43:57.374Z,9.10
2022-09-22T08:45:35.648Z,9.20
2022-09-22T08:47:39.326Z,9.30
2022-09-22T08:49:41.698Z,9.50
2022-09-22T08:51:39.200Z,9.70
2022-09-22T08:53:19.568Z,9.80
2022-09-22T08:54:55.015Z,10.00
2022-09-22T08:56:38.459Z,10.10
2022-09-22T08:58:29.506Z,10.20
2022-09-22T09:00:07.711Z,10.40
2022-09-22T09:02:15.339Z,10.50
2022-09-22T09:04:11.158Z,10.60
2022-09-22T09:06:03.996Z,10.80
2022-09-22T09:07:49.346Z,10.90
2022-09-22T09:09:47.464Z,11.00
2022-09-22T09:11:41.172Z,11.20
2022-09-22T09:13:46.173Z,11.30
2022-09-22T09:15:43.726Z,11.40
2022-09-22T09:17:24.069Z,11.60
2022-09-22T09:19:07.214Z,11.70
2022-09-22T09:20:46.641Z,11.80
2022-09-22T09:22:25.181Z,12.00
2022-09-22T09:26:03.954Z,12.30
2022-09-22T09:27:43.397Z,12.40
2022-09-22T09:29:28.327Z,12.50
2022-09-22T09:31:12.315Z,12.60
2022-09-22T09:32:51.498Z,12.80
2022-09-22T09:34:29.802Z,12.90
2022-09-22T09:36:03.746Z,13.00
2022-09-22T09:37:37.514Z,13.10
2022-09-22T09:39:15.329Z,13.20
2022-09-22T09:40:56.696Z,13.30
2022-09-22T09:42:36.162Z,13.50
2022-09-22T09:44:20.348Z,13.60
2022-09-22T09:46:13.808Z,13.70
2022-09-22T09:48:12.192Z,13.80
2022-09-22T09:49:45.475Z,13.90
2022-09-22T09:51:19.832Z,14.00
2022-09-22T09:52:54.223Z,14.20
2022-09-22T09:54:28.683Z,14.30
2022-09-22T09:56:02.752Z,14.40
2022-09-22T09:58:07.323Z,14.50
2022-09-22T10:00:00.887Z,14.60
2022-09-22T10:01:33.397Z,14.70
2022-09-22T10:03:17.377Z,14.90
2022-09-22T10:04:54.262Z,14.90
2022-09-22T10:06:27.589Z,15.10
2022-09-22T10:08:05.459Z,15.10
2022-09-22T10:09:40.874Z,15.20
2022-09-22T10:11:15.065Z,15.40
2022-09-22T10:12:50.128Z,15.40
2022-09-22T10:14:27.606Z,15.50
2022-09-22T10:16:21.442Z,15.60
2022-09-22T10:17:54.859Z,15.70
2022-09-22T10:19:31.202Z,15.80
2022-09-22T10:21:14.477Z,15.90
2022-09-22T10:22:47.999Z,15.90
2022-09-22T10:24:32.923Z,16.10
2022-09-22T10:26:23.017Z,16.20
2022-09-22T10:28:09.301Z,16.20
2022-09-22T10:29:42.526Z,16.40
2022-09-22T10:31:25.018Z,16.50
2022-09-22T10:33:17.238Z,16.60
2022-09-22T10:34:57.183Z,16.70
2022-09-22T10:36:33.798Z,16.80
2022-09-22T10:38:16.626Z,16.90
2022-09-22T10:39:52.519Z,17.00
2022-09-22T10:41:33.989Z,17.00
2022-09-22T10:43:35.534Z,17.10
2022-09-22T10:45:15.221Z,17.20
2022-09-22T10:47:29.623Z,17.30
2022-09-22T10:49:13.684Z,17.40
2022-09-22T10:50:59.893Z,17.40
2022-09-22T10:52:42.945Z,17.40
2022-09-22T10:54:43.226Z,17.60
2022-09-22T10:56:30.614Z,17.60
2022-09-22T10:58:45.315Z,17.70
2022-09-22T11:00:22.277Z,17.80
2022-09-22T11:02:35.352Z,17.90
2022-09-22T11:04:38.925Z,17.90
2022-09-22T11:07:04.199Z,17.90
2022-09-22T11:09:03.910Z,18.00
2022-09-22T11:11:14.296Z,18.10
2022-09-22T11:13:03.746Z,18.20
2022-09-22T11:15:00.791Z,18.20
2022-09-22T11:16:54.883Z,18.30
2022-09-22T11:18:52.744Z,18.30
2022-09-22T11:20:36.248Z,18.40
2022-09-22T11:22:33.424Z,18.40
2022-09-22T11:24:32.007Z,18.40
2022-09-22T11:26:30.162Z,18.50
2022-09-22T11:28:23.809Z,18.40
2022-09-22T11:30:11.931Z,18.40
2022-09-22T11:32:04.099Z,18.40
2022-09-22T11:34:12.980Z,18.40
2022-09-22T11:36:04.486Z,18.50
2022-09-22T11:37:58.631Z,18.50
2022-09-22T11:39:49.019Z,18.50
2022-09-22T11:41:32.263Z,18.60
2022-09-22T11:43:30.001Z,18.60
2022-09-22T11:45:20.523Z,18.60
2022-09-22T11:47:17.028Z,18.70
2022-09-22T11:49:11.235Z,18.70
2022-09-22T11:51:05.392Z,18.70
2022-09-22T11:53:00.592Z,18.70
2022-09-22T11:55:12.164Z,18.90
2022-09-22T11:56:50.208Z,18.80
2022-09-22T11:58:29.544Z,18.90
2022-09-22T12:00:15.310Z,18.80
2022-09-22T12:01:50.889Z,18.90
2022-09-22T12:03:31.330Z,18.90
2022-09-22T12:05:12.647Z,18.80
2022-09-22T12:06:51.738Z,18.90
2022-09-22T12:08:34.672Z,18.90
2022-09-22T12:10:17.627Z,18.90
2022-09-22T12:11:53.196Z,18.90
2022-09-22T12:13:30.854Z,18.90
2022-09-22T12:15:21.608Z,18.90
2022-09-22T12:17:06.000Z,18.90
2022-09-22T12:18:47.039Z,18.90
2022-09-22T12:20:43.827Z,18.80
2022-09-22T12:22:26.411Z,18.90
2022-09-22T12:24:04.382Z,18.90
2022-09-22T12:25:50.524Z,18.90
2022-09-22T12:27:26.063Z,18.90
2022-09-22T12:29:01.922Z,18.90
2022-09-22T12:30:36.698Z,19.00
2022-09-22T12:32:24.889Z,19.00
2022-09-22T12:33:58.342Z,19.10
2022-09-22T12:35:33.163Z,19.00
2022-09-22T12:37:14.033Z,19.00
2022-09-22T12:38:47.854Z,19.10
2022-09-22T12:40:30.575Z,19.10
2022-09-22T12:42:08.003Z,19.10
2022-09-22T12:43:41.894Z,19.10
2022-09-22T12:45:27.489Z,19.10
2022-09-22T12:47:07.475Z,19.10
2022-09-22T12:48:41.136Z,19.10
2022-09-22T12:50:37.762Z,19.20
2022-09-22T12:52:54.402Z,19.20
2022-09-22T12:54:39.318Z,19.30
2022-09-22T12:56:46.334Z,19.30
2022-09-22T12:58:49.687Z,19.40
2022-09-22T13:00:35.049Z,19.40
2022-09-22T13:02:31.671Z,19.40
2022-09-22T13:04:19.131Z,19.50
2022-09-22T13:05:54.155Z,19.50
2022-09-22T13:07:37.222Z,19.60
2022-09-22T13:09:22.582Z,19.60
2022-09-22T13:11:02.186Z,19.60
2022-09-22T13:12:35.729Z,19.60
2022-09-22T13:14:59.469Z,19.60
2022-09-22T13:16:37.422Z,19.70
2022-09-22T13:18:31.919Z,19.70
2022-09-22T13:20:16.657Z,19.70
2022-09-22T13:21:50.271Z,19.80
2022-09-22T13:23:22.875Z,19.80
2022-09-22T13:24:56.059Z,19.80
2022-09-22T13:26:32.656Z,19.80
2022-09-22T13:28:15.859Z,19.80
2022-09-22T13:29:59.106Z,19.90
2022-09-22T13:31:40.155Z,19.90
2022-09-22T13:33:23.303Z,19.90
2022-09-22T13:34:58.266Z,19.90
2022-09-22T13:36:32.184Z,19.90
2022-09-22T13:38:07.175Z,19.90
2022-09-22T13:39:47.363Z,19.90
2022-09-22T13:41:25.745Z,20.00
2022-09-22T13:43:05.993Z,20.00
2022-09-22T13:44:42.748Z,20.00
2022-09-22T13:46:25.028Z,20.10
2022-09-22T13:48:08.821Z,20.10
2022-09-22T13:49:47.466Z,20.10
2022-09-22T13:51:24.847Z,20.20
2022-09-22T13:52:58.579Z,20.20
2022-09-22T13:54:36.262Z,20.10
2022-09-22T13:56:21.569Z,20.20
2022-09-22T13:57:59.333Z,20.30
2022-09-22T13:59:42.179Z,20.30
2022-09-22T14:01:21.808Z,20.30
2022-09-22T14:02:58.874Z,20.30
2022-09-22T14:04:32.550Z,20.30
2022-09-22T14:06:12.791Z,20.30
2022-09-22T14:08:07.727Z,20.30
2022-09-22T14:09:43.314Z,20.30
2022-09-22T14:11:20.567Z,20.30
2022-09-22T14:12:54.130Z,20.30
2022-09-22T14:14:29.044Z,20.30
2022-09-22T14:16:14.817Z,20.30
2022-09-22T14:17:48.167Z,20.30
2022-09-22T14:19:27.870Z,20.20
2022-09-22T14:21:01.479Z,20.20
2022-09-22T14:22:42.887Z,20.20
2022-09-22T14:24:17.909Z,20.20
2022-09-22T14:25:51.894Z,20.10
2022-09-22T14:27:32.506Z,20.20
2022-09-22T14:29:16.079Z,20.10
2022-09-22T14:30:50.159Z,20.00
2022-09-22T14:32:33.255Z,20.00
2022-09-22T14:34:11.783Z,20.00
2022-09-22T14:35:45.307Z,19.90
2022-09-22T14:37:27.439Z,19.90
2022-09-22T14:39:10.269Z,19.90
2022-09-22T14:40:54.928Z,19.90
2022-09-22T14:42:30.730Z,19.80
2022-09-22T14:44:40.213Z,19.80
2022-09-22T14:46:25.568Z,19.80
2022-09-22T14:48:18.883Z,19.80
2022-09-22T14:50:09.385Z,19.80
2022-09-22T14:51:49.165Z,19.70
2022-09-22T14:53:27.075Z,19.80
2022-09-22T14:55:10.146Z,19.80
2022-09-22T14:56:45.539Z,19.70
2022-09-22T14:58:23.978Z,19.70
2022-09-22T15:00:18.626Z,19.70
2022-09-22T15:02:10.529Z,19.70
2022-09-22T15:03:52.690Z,19.70
2022-09-22T15:05:30.474Z,19.70
2022-09-22T15:07:04.592Z,19.70
2022-09-22T15:08:39.109Z,19.60
2022-09-22T15:10:24.772Z,19.60
2022-09-22T15:12:02.764Z,19.60
2022-09-22T15:13:42.180Z,19.60
2022-09-22T15:15:21.701Z,19.50
2022-09-22T15:17:15.475Z,19.50
2022-09-22T15:18:47.767Z,19.50
2022-09-22T15:20:21.230Z,19.50
2022-09-22T15:21:56.346Z,19.40
2022-09-22T15:23:37.423Z,19.30
2022-09-22T15:25:16.031Z,19.30
2022-09-22T15:26:49.330Z,19.30
2022-09-22T15:28:26.902Z,19.20
2022-09-22T15:29:59.463Z,19.20
2022-09-22T15:31:32.900Z,19.10
2022-09-22T15:33:06.868Z,19.10
2022-09-22T15:34:42.885Z,19.00
2022-09-22T15:36:20.109Z,19.00
2022-09-22T15:37:53.453Z,18.90
2022-09-22T15:39:26.920Z,18.90
2022-09-22T15:41:01.103Z,18.90
2022-09-22T15:42:35.115Z,18.80
2022-09-22T15:44:11.211Z,18.70
2022-09-22T15:45:47.861Z,18.70
2022-09-22T15:47:21.383Z,18.70
2022-09-22T15:48:59.430Z,18.60
2022-09-22T15:50:33.236Z,18.60
2022-09-22T15:52:06.763Z,18.60
2022-09-22T15:53:46.983Z,18.50
2022-09-22T15:55:23.481Z,18.50
2022-09-22T15:57:00.642Z,18.50
2022-09-22T15:58:39.763Z,18.40
2022-09-22T16:00:26.153Z,18.40
2022-09-22T16:02:00.481Z,18.30
2022-09-22T16:03:41.248Z,18.30
2022-09-22T16:05:16.950Z,18.20
2022-09-22T16:06:57.458Z,18.20
2022-09-22T16:08:38.818Z,18.20
2022-09-22T16:10:15.903Z,18.10
2022-09-22T16:11:49.579Z,18.10
2022-09-22T16:13:22.943Z,18.00
2022-09-22T16:14:57.014Z,18.00
2022-09-22T16:16:33.426Z,17.90
2022-09-22T16:18:08.490Z,17.90
2022-09-22T16:19:41.958Z,17.80
2022-09-22T16:21:23.131Z,17.80
2022-09-22T16:22:55.511Z,17.70
2022-09-22T16:24:28.944Z,17.70
2022-09-22T16:26:02.191Z,17.60
2022-09-22T16:27:36.134Z,17.50
2022-09-22T16:29:10.061Z,17.50
2022-09-22T16:30:43.783Z,17.40
2022-09-22T16:32:21.139Z,17.30
2022-09-22T16:33:56.328Z,17.20
2022-09-22T16:35:33.443Z,17.20
2022-09-22T16:37:12.349Z,17.10
2022-09-22T16:38:55.352Z,17.00
2022-09-22T16:40:30.205Z,16.90
2022-09-22T16:42:09.845Z,16.90
2022-09-22T16:43:48.090Z,16.80
2022-09-22T16:45:41.528Z,16.70
2022-09-22T16:47:14.124Z,16.60
2022-09-22T16:48:50.938Z,16.50
2022-09-22T16:50:24.448Z,16.40
2022-09-22T16:51:57.952Z,16.50
2022-09-22T16:53:31.305Z,16.40
2022-09-22T16:55:05.111Z,16.30
2022-09-22T16:56:38.992Z,16.20
2022-09-22T16:58:13.483Z,16.20
2022-09-22T16:59:46.682Z,16.20
2022-09-22T17:01:20.337Z,16.00
2022-09-22T17:02:54.904Z,16.00
2022-09-22T17:04:30.127Z,16.00
2022-09-22T17:06:04.408Z,15.90
2022-09-22T17:07:37.781Z,15.80
2022-09-22T17:09:12.997Z,15.80
2022-09-22T17:10:48.539Z,15.70
2022-09-22T17:12:25.500Z,15.60
2022-09-22T17:14:00.818Z,15.60
2022-09-22T17:15:36.134Z,15.50
2022-09-22T17:17:10.638Z,15.50
2022-09-22T17:18:44.059Z,15.40
2022-09-22T17:20:18.664Z,15.30
2022-09-22T17:21:55.120Z,15.30
2022-09-22T17:23:28.413Z,15.20
2022-09-22T17:25:02.020Z,15.20
2022-09-22T17:26:38.083Z,15.10
2022-09-22T17:28:11.798Z,15.00
2022-09-22T17:29:45.307Z,15.00
2022-09-22T17:31:19.282Z,14.90
2022-09-22T17:32:53.429Z,14.90
2022-09-22T17:34:29.206Z,14.80
2022-09-22T17:36:07.468Z,14.80
2022-09-22T17:37:40.743Z,14.70
2022-09-22T17:39:14.132Z,14.70
2022-09-22T17:40:48.093Z,14.60
2022-09-22T17:42:21.987Z,14.60
2022-09-22T17:43:57.446Z,14.50
2022-09-22T17:45:30.827Z,14.50
2022-09-22T17:47:22.635Z,14.40
2022-09-22T17:49:13.594Z,14.30
2022-09-22T17:51:08.534Z,14.20
2022-09-22T17:53:00.813Z,14.20
2022-09-22T17:54:53.830Z,14.10
2022-09-22T17:56:29.456Z,14.00
2022-09-22T17:58:04.676Z,14.00
2022-09-22T17:59:39.256Z,13.90
2022-09-22T18:01:12.615Z,13.90
2022-09-22T18:02:45.969Z,13.90
2022-09-22T18:04:19.496Z,13.80
2022-09-22T18:05:53.769Z,13.70
2022-09-22T18:07:28.206Z,13.60
2022-09-22T18:09:03.079Z,13.50
2022-09-22T18:10:36.276Z,13.50
2022-09-22T18:12:13.886Z,13.40
2022-09-22T18:13:47.671Z,13.30
2022-09-22T18:15:21.033Z,13.20
2022-09-22T18:16:54.468Z,13.20
2022-09-22T18:18:30.163Z,13.10
2022-09-22T18:20:03.873Z,13.00
2022-09-22T18:21:39.847Z,13.00
2022-09-22T18:23:13.827Z,12.90
2022-09-22T18:24:50.448Z,12.80
2022-09-22T18:26:23.835Z,12.80
2022-09-22T18:27:57.714Z,12.70
2022-09-22T18:29:31.864Z,12.60
2022-09-22T18:31:05.281Z,12.60
2022-09-22T18:32:40.057Z,12.50
2022-09-22T18:34:14.130Z,12.50
2022-09-22T18:35:49.947Z,12.40
2022-09-22T18:37:26.379Z,12.30
2022-09-22T18:38:59.915Z,12.30
2022-09-22T18:40:34.741Z,12.20
2022-09-22T18:42:11.035Z,12.10
2022-09-22T18:43:45.340Z,12.10
2022-09-22T18:45:19.339Z,12.00
2022-09-22T18:46:53.811Z,11.90
2022-09-22T18:48:27.459Z,11.90
2022-09-22T18:50:00.931Z,11.80
2022-09-22T18:51:35.604Z,11.80
2022-09-22T18:53:08.829Z,11.70
2022-09-22T18:54:42.880Z,11.70
2022-09-22T18:56:19.039Z,11.60
2022-09-22T18:57:52.527Z,11.50
2022-09-22T18:59:28.320Z,11.60
2022-09-22T19:01:01.696Z,11.50
2022-09-22T19:02:35.093Z,11.40
2022-09-22T19:04:14.320Z,11.40
2022-09-22T19:05:48.006Z,11.30
2022-09-22T19:07:42.437Z,11.30
2022-09-22T19:09:16.539Z,11.20
2022-09-22T19:10:50.851Z,11.20
2022-09-22T19:12:25.824Z,11.10
2022-09-22T19:13:59.080Z,11.10
2022-09-22T19:15:32.602Z,11.10
2022-09-22T19:17:07.359Z,11.00
2022-09-22T19:18:43.695Z,11.00
2022-09-22T19:20:22.413Z,11.00
2022-09-22T19:21:56.182Z,11.00
2022-09-22T19:23:29.695Z,10.90
2022-09-22T19:25:05.628Z,10.80
2022-09-22T19:26:42.151Z,10.80
2022-09-22T19:28:19.723Z,10.70
2022-09-22T19:29:55.651Z,10.70
2022-09-22T19:31:31.174Z,10.60
2022-09-22T19:33:05.234Z,10.60
2022-09-22T19:34:39.058Z,10.50
2022-09-22T19:36:12.717Z,10.50
2022-09-22T19:37:46.831Z,10.40
2022-09-22T19:39:20.744Z,10.40
2022-09-22T19:40:59.509Z,10.40
2022-09-22T19:42:40.014Z,10.30
2022-09-22T19:44:16.589Z,10.30
2022-09-22T19:45:51.028Z,10.30
2022-09-22T19:47:27.236Z,10.20
2022-09-22T19:49:01.152Z,10.20
2022-09-22T19:50:34.554Z,10.10
2022-09-22T19:52:09.395Z,10.10
2022-09-22T19:53:42.799Z,10.10
2022-09-22T19:55:20.205Z,10.10
2022-09-22T19:56:54.460Z,10.00
2022-09-22T19:58:30.411Z,10.00
2022-09-22T20:00:06.418Z,10.00
2022-09-22T20:01:58.703Z,10.00
2022-09-22T20:03:32.370Z,10.00
2022-09-22T20:05:07.784Z,9.90
2022-09-22T20:06:41.064Z,9.90
2022-09-22T20:08:16.630Z,9.80
2022-09-22T20:09:49.891Z,9.80
2022-09-22T20:11:26.745Z,9.70
2022-09-22T20:13:00.954Z,9.70
2022-09-22T20:14:34.539Z,9.70
2022-09-22T20:16:07.940Z,9.60
2022-09-22T20:17:46.031Z,9.50
2022-09-22T20:19:20.722Z,9.50
2022-09-22T20:20:55.975Z,9.50
2022-09-22T20:22:31.322Z,9.40
2022-09-22T20:24:05.753Z,9.40
2022-09-22T20:25:39.331Z,9.40
2022-09-22T20:27:12.626Z,9.30
2022-09-22T20:28:45.202Z,9.30
2022-09-22T20:30:19.317Z,9.30
2022-09-22T20:31:52.547Z,9.30
2022-09-22T20:33:27.101Z,9.20
2022-09-22T20:35:01.551Z,9.20
2022-09-22T20:36:37.282Z,9.20
2022-09-22T20:38:12.613Z,9.10
2022-09-22T20:39:47.133Z,9.10
2022-09-22T20:41:23.205Z,9.10
2022-09-22T20:42:57.131Z,9.00
2022-09-22T20:44:32.712Z,9.00
2022-09-22T20:46:10.154Z,9.00
2022-09-22T20:47:44.769Z,8.90
2022-09-22T20:49:20.052Z,8.90
2022-09-22T20:51:02.801Z,8.90
2022-09-22T20:52:36.999Z,8.80
2022-09-22T20:54:11.871Z,8.80
2022-09-22T20:55:47.635Z,8.80
2022-09-22T20:57:21.910Z,8.70
2022-09-22T20:58:55.210Z,8.70
2022-09-22T21:00:27.917Z,8.60
2022-09-22T21:02:04.421Z,8.60
2022-09-22T21:03:38.456Z,8.70
2022-09-22T21:05:13.132Z,8.60
2022-09-22T21:06:46.503Z,8.50
2022-09-22T21:08:39.764Z,8.50
2022-09-22T21:10:33.810Z,8.50
2022-09-22T21:12:11.631Z,8.40
2022-09-22T21:13:45.745Z,8.40
2022-09-22T21:15:24.544Z,8.40
2022-09-22T21:17:06.660Z,8.30
2022-09-22T21:18:42.937Z,8.30
2022-09-22T21:20:21.500Z,8.20
2022-09-22T21:21:54.963Z,8.20
2022-09-22T21:23:28.423Z,8.20
2022-09-22T21:25:02.500Z,8.10
2022-09-22T21:26:36.011Z,8.10
2022-09-22T21:28:09.276Z,8.00
2022-09-22T21:29:42.345Z,8.00
2022-09-22T21:31:21.571Z,8.00
2022-09-22T21:32:58.456Z,7.90
2022-09-22T21:34:31.732Z,7.90
2022-09-22T21:36:08.747Z,7.90
2022-09-22T21:37:43.584Z,7.80